createdAt,value
2022-08-09T00:00:04.574Z,82.10
2022-08-09T00:02:33.953Z,82.10
2022-08-09T00:06:15.962Z,82.00
2022-08-09T00:07:49.435Z,82.10
2022-08-09T00:10:21.577Z,82.20
2022-08-09T00:12:53.069Z,82.20
2022-08-09T00:15:26.677Z,82.00
2022-08-09T00:18:07.477Z,82.20
2022-08-09T00:20:42.611Z,82.60
2022-08-09T00:23:56.446Z,82.80
2022-08-09T00:26:05.466Z,83.00
2022-08-09T00:28:34.518Z,82.90
2022-08-09T00:31:02.421Z,83.10
2022-08-09T00:33:51.084Z,83.10
2022-08-09T00:36:19.383Z,83.30
2022-08-09T00:38:46.894Z,83.40
2022-08-09T00:44:13.075Z,83.80
2022-08-09T00:44:15.996Z,83.60
2022-08-09T00:46:57.690Z,83.80
2022-08-09T00:49:31.081Z,83.90
2022-08-09T00:51:58.119Z,84.10
2022-08-09T00:54:36.335Z,84.40
2022-08-09T00:57:10.471Z,84.40
2022-08-09T00:59:40.983Z,84.50
2022-08-09T01:02:15.434Z,84.70
2022-08-09T01:04:52.923Z,84.50
2022-08-09T01:07:37.662Z,84.30
2022-08-09T01:10:15.698Z,84.50
2022-08-09T01:12:50.828Z,84.50
2022-08-09T01:15:24.005Z,84.60
2022-08-09T01:17:57.698Z,84.80
2022-08-09T01:20:34.622Z,84.90
2022-08-09T01:24:03.597Z,84.80
2022-08-09T01:26:15.520Z,85.00
2022-08-09T01:28:47.179Z,85.40
2022-08-09T01:32:30.623Z,85.60
2022-08-09T01:34:10.470Z,85.90
2022-08-09T01:36:39.903Z,86.00
2022-08-09T01:39:07.274Z,86.20
2022-08-09T01:41:35.963Z,86.40
2022-08-09T01:44:05.548Z,86.50
2022-08-09T01:46:37.198Z,86.60
2022-08-09T01:49:09.974Z,86.60
2022-08-09T01:51:42.753Z,86.70
2022-08-09T01:54:12.587Z,86.80
2022-08-09T01:56:42.103Z,87.00
2022-08-09T01:59:19.395Z,87.70
2022-08-09T02:01:59.442Z,88.40
2022-08-09T02:04:29.823Z,88.00
2022-08-09T02:07:17.779Z,88.00
2022-08-09T02:10:04.155Z,88.30
2022-08-09T02:12:33.337Z,88.30
2022-08-09T02:15:03.188Z,88.30
2022-08-09T02:18:01.673Z,88.70
2022-08-09T02:20:25.223Z,88.60
2022-08-09T02:23:06.028Z,88.60
2022-08-09T02:25:42.649Z,88.80
2022-08-09T02:28:20.377Z,88.80
2022-08-09T02:30:51.741Z,88.90
2022-08-09T02:33:23.310Z,89.00
2022-08-09T02:36:08.227Z,88.80
2022-08-09T02:38:47.761Z,89.10
2022-08-09T02:41:19.181Z,89.10
2022-08-09T02:43:54.763Z,89.50
2022-08-09T02:46:25.439Z,89.90
2022-08-09T02:48:56.401Z,90.00
2022-08-09T02:51:24.278Z,90.10
2022-08-09T02:54:00.786Z,90.20
2022-08-09T02:56:30.342Z,90.30
2022-08-09T02:58:58.572Z,90.60
2022-08-09T03:01:29.621Z,90.50
2022-08-09T03:04:19.242Z,90.50
2022-08-09T03:06:48.815Z,90.50
2022-08-09T03:09:19.561Z,90.60
2022-08-09T03:12:09.758Z,90.70
2022-08-09T03:14:36.720Z,90.70
2022-08-09T03:17:05.702Z,91.10
2022-08-09T03:19:59.481Z,90.70
2022-08-09T03:22:25.414Z,90.70
2022-08-09T03:25:03.339Z,90.80
2022-08-09T03:27:37.239Z,90.90
2022-08-09T03:30:13.191Z,91.00
2022-08-09T03:32:45.610Z,91.20
2022-08-09T03:35:14.984Z,91.30
2022-08-09T03:37:55.709Z,91.20
2022-08-09T03:40:25.480Z,91.30
2022-08-09T03:42:57.908Z,91.40
2022-08-09T03:46:05.338Z,91.30
2022-08-09T03:48:19.047Z,91.40
2022-08-09T03:50:59.085Z,91.30
2022-08-09T03:53:32.219Z,91.50
2022-08-09T03:56:04.920Z,91.40
2022-08-09T03:58:32.450Z,91.50
2022-08-09T04:00:59.934Z,91.70
2022-08-09T04:03:45.886Z,91.60
2022-08-09T04:06:16.665Z,91.60
2022-08-09T04:08:46.672Z,91.80
2022-08-09T04:11:13.666Z,91.80
2022-08-09T04:14:37.484Z,91.90
2022-08-09T04:16:27.548Z,91.90
2022-08-09T04:18:54.926Z,92.10
2022-08-09T04:21:22.172Z,92.20
2022-08-09T04:23:54.110Z,92.10
2022-08-09T04:26:24.484Z,92.20
2022-08-09T04:28:54.062Z,92.40
2022-08-09T04:31:26.348Z,92.40
2022-08-09T04:34:04.950Z,92.40
2022-08-09T04:36:33.755Z,92.50
2022-08-09T04:39:04.116Z,92.70
2022-08-09T04:41:32.882Z,92.40
2022-08-09T04:44:07.137Z,92.50
2022-08-09T04:46:56.745Z,92.50
2022-08-09T04:49:47.707Z,92.50
2022-08-09T04:52:12.380Z,92.50
2022-08-09T04:54:50.800Z,92.40
2022-08-09T04:57:21.526Z,92.50
2022-08-09T04:59:51.810Z,92.60
2022-08-09T05:02:18.951Z,92.70
2022-08-09T05:04:47.702Z,92.60
2022-08-09T05:07:22.268Z,92.60
2022-08-09T05:09:50.226Z,92.30
2022-08-09T05:12:17.278Z,92.40
2022-08-09T05:14:43.987Z,92.70
2022-08-09T05:17:15.374Z,92.80
2022-08-09T05:19:59.084Z,92.70
2022-08-09T05:22:33.245Z,92.60
2022-08-09T05:25:02.866Z,92.50
2022-08-09T05:27:30.276Z,92.70
2022-08-09T05:29:57.898Z,92.40
2022-08-09T05:32:26.004Z,92.60
2022-08-09T05:34:56.996Z,92.60
2022-08-09T05:37:25.493Z,92.50
2022-08-09T05:39:52.769Z,92.70
2022-08-09T05:42:21.550Z,92.70
2022-08-09T05:44:58.037Z,92.50
2022-08-09T05:47:30.323Z,92.40
2022-08-09T05:50:25.926Z,92.20
2022-08-09T05:52:53.595Z,92.20
2022-08-09T05:55:23.918Z,92.10
2022-08-09T05:57:56.792Z,91.90
2022-08-09T06:00:25.677Z,91.90
2022-08-09T06:02:57.020Z,91.80
2022-08-09T06:05:31.006Z,91.70
2022-08-09T06:08:12.122Z,91.50
2022-08-09T06:10:38.888Z,91.60
2022-08-09T06:13:12.239Z,91.60
2022-08-09T06:15:46.887Z,91.80
2022-08-09T06:18:15.811Z,91.70
2022-08-09T06:20:54.408Z,91.20
2022-08-09T06:23:57.301Z,91.10
2022-08-09T06:26:15.137Z,91.10
2022-08-09T06:28:48.951Z,90.80
2022-08-09T06:31:15.760Z,90.50
2022-08-09T06:33:48.931Z,90.70
2022-08-09T06:36:20.050Z,90.50
2022-08-09T06:38:54.952Z,90.40
2022-08-09T06:41:24.161Z,90.20
2022-08-09T06:44:13.638Z,90.10
2022-08-09T06:46:47.412Z,89.10
2022-08-09T06:49:29.101Z,87.60
2022-08-09T06:52:04.752Z,87.00
2022-08-09T06:54:35.303Z,87.00
2022-08-09T06:57:02.062Z,87.90
2022-08-09T07:00:55.352Z,88.10
2022-08-09T07:02:16.761Z,87.00
2022-08-09T07:04:44.734Z,86.60
2022-08-09T07:07:12.136Z,86.60
2022-08-09T07:10:11.525Z,86.00
2022-08-09T07:12:46.339Z,86.40
2022-08-09T07:16:36.709Z,86.00
2022-08-09T07:18:11.973Z,86.30
2022-08-09T07:20:43.369Z,86.30
2022-08-09T07:23:18.712Z,86.50
2022-08-09T07:25:52.620Z,86.40
2022-08-09T07:28:29.738Z,85.40
2022-08-09T07:30:56.561Z,85.20
2022-08-09T07:33:25.764Z,85.00
2022-08-09T07:35:58.013Z,83.40
2022-08-09T07:38:25.668Z,82.20
2022-08-09T07:41:12.079Z,82.30
2022-08-09T07:43:49.606Z,81.20
2022-08-09T07:46:22.489Z,81.50
2022-08-09T07:48:59.380Z,80.40
2022-08-09T07:52:04.386Z,80.00
2022-08-09T07:54:15.131Z,80.00
2022-08-09T07:56:49.349Z,79.90
2022-08-09T07:59:34.695Z,77.90
2022-08-09T08:02:05.384Z,78.10
2022-08-09T08:04:33.044Z,77.60
2022-08-09T08:07:14.866Z,77.20
2022-08-09T08:09:55.115Z,76.10
2022-08-09T08:12:37.222Z,76.00
2022-08-09T08:15:11.800Z,75.00
2022-08-09T08:17:52.940Z,73.80
2022-08-09T08:20:29.078Z,72.60
2022-08-09T08:23:01.345Z,73.30
2022-08-09T08:25:44.781Z,73.90
2022-08-09T08:28:17.989Z,71.60
2022-08-09T08:30:47.572Z,71.70
2022-08-09T08:33:24.104Z,70.70
2022-08-09T08:35:58.213Z,71.70
2022-08-09T08:38:27.994Z,70.90
2022-08-09T08:40:56.102Z,71.00
2022-08-09T08:43:26.507Z,71.30
2022-08-09T08:46:03.695Z,71.20
2022-08-09T08:48:37.612Z,70.20
2022-08-09T08:51:06.535Z,70.60
2022-08-09T08:53:37.219Z,70.00
2022-08-09T08:56:06.653Z,69.60
2022-08-09T08:58:36.236Z,70.00
2022-08-09T09:01:08.832Z,69.40
2022-08-09T09:03:58.339Z,69.60
2022-08-09T09:06:38.954Z,69.60
2022-08-09T09:09:57.844Z,69.10
2022-08-09T09:11:55.770Z,69.10
2022-08-09T09:14:25.047Z,69.80
2022-08-09T09:16:54.540Z,68.40
2022-08-09T09:19:36.990Z,67.80
2022-08-09T09:22:11.741Z,68.30
2022-08-09T09:24:43.470Z,69.80
2022-08-09T09:28:04.010Z,70.80
2022-08-09T09:30:22.727Z,68.30
2022-08-09T09:33:15.524Z,67.80
2022-08-09T09:36:01.361Z,67.30
2022-08-09T09:38:46.249Z,67.80
2022-08-09T09:41:32.582Z,66.80
2022-08-09T09:44:12.821Z,65.30
2022-08-09T09:46:46.124Z,65.40
2022-08-09T09:49:32.289Z,65.40
2022-08-09T09:52:16.368Z,64.20
2022-08-09T09:55:27.576Z,63.90
2022-08-09T09:58:15.832Z,62.20
2022-08-09T10:00:54.076Z,64.20
2022-08-09T10:03:43.904Z,63.40
2022-08-09T10:06:12.595Z,62.70
2022-08-09T10:08:43.253Z,63.30
2022-08-09T10:12:00.307Z,63.90
2022-08-09T10:14:30.514Z,62.20
2022-08-09T10:17:38.916Z,63.60
2022-08-09T10:19:45.840Z,63.40
2022-08-09T10:22:12.772Z,64.20
2022-08-09T10:24:40.351Z,63.80
2022-08-09T10:27:10.511Z,64.70
2022-08-09T10:30:48.062Z,65.50
2022-08-09T10:32:42.777Z,64.50
2022-08-09T10:35:37.980Z,63.10
2022-08-09T10:38:54.443Z,63.20
2022-08-09T10:41:20.769Z,62.60
2022-08-09T10:43:58.716Z,63.10
2022-08-09T10:46:54.660Z,63.10
2022-08-09T10:49:49.909Z,63.00
2022-08-09T10:52:42.642Z,62.20
2022-08-09T10:55:23.111Z,61.40
2022-08-09T10:57:51.897Z,62.50
2022-08-09T11:00:56.878Z,62.90
2022-08-09T11:03:49.839Z,62.50
2022-08-09T11:06:22.868Z,61.20
2022-08-09T11:08:53.930Z,61.80
2022-08-09T11:11:22.309Z,61.90
2022-08-09T11:14:28.269Z,62.30
2022-08-09T11:16:56.684Z,61.70
2022-08-09T11:20:07.969Z,62.30
2022-08-09T11:23:02.933Z,63.10
2022-08-09T11:25:47.624Z,62.10
2022-08-09T11:28:38.635Z,62.60
2022-08-09T11:31:48.803Z,61.20
2022-08-09T11:34:24.808Z,60.60
2022-08-09T11:36:52.590Z,59.50
2022-08-09T11:39:19.432Z,58.50
2022-08-09T11:41:46.789Z,57.80
2022-08-09T11:44:15.845Z,57.10
2022-08-09T11:47:00.080Z,57.10
2022-08-09T11:50:53.115Z,56.70
2022-08-09T11:53:57.780Z,57.80
2022-08-09T11:56:41.318Z,60.20
2022-08-09T11:59:10.902Z,61.30
2022-08-09T12:02:17.753Z,61.40
2022-08-09T12:04:32.385Z,61.40
2022-08-09T12:07:07.946Z,60.00
2022-08-09T12:09:36.347Z,61.10
2022-08-09T12:12:05.331Z,60.90
2022-08-09T12:14:36.937Z,60.90
2022-08-09T12:17:28.172Z,62.30
2022-08-09T12:20:00.093Z,60.60
2022-08-09T12:22:29.206Z,60.90
2022-08-09T12:25:11.037Z,60.80
2022-08-09T12:29:12.697Z,58.00
2022-08-09T12:30:36.213Z,57.70
2022-08-09T12:33:06.138Z,57.70
2022-08-09T12:35:40.085Z,58.70
2022-08-09T12:38:29.691Z,59.20
2022-08-09T12:41:05.523Z,58.60
2022-08-09T12:44:06.291Z,59.40
2022-08-09T12:46:22.769Z,60.00
2022-08-09T12:48:52.161Z,59.30
2022-08-09T12:51:52.817Z,59.40
2022-08-09T12:54:08.127Z,58.50
2022-08-09T12:56:51.279Z,59.10
2022-08-09T12:59:21.960Z,57.80
2022-08-09T13:02:04.798Z,57.10
2022-08-09T13:04:38.624Z,56.80
2022-08-09T13:07:13.786Z,57.50
2022-08-09T13:09:52.752Z,55.90
2022-08-09T13:12:27.083Z,54.10
2022-08-09T13:15:04.483Z,54.50
2022-08-09T13:18:03.341Z,52.50
2022-08-09T13:20:37.495Z,53.70
2022-08-09T13:24:16.226Z,52.60
2022-08-09T13:26:05.490Z,52.20
2022-08-09T13:28:35.496Z,51.40
2022-08-09T13:32:17.628Z,52.80
2022-08-09T13:33:54.322Z,53.00
2022-08-09T13:36:37.916Z,53.50
2022-08-09T13:41:20.787Z,53.80
2022-08-09T13:42:02.145Z,52.70
2022-08-09T13:44:30.129Z,53.00
2022-08-09T13:47:26.849Z,52.50
2022-08-09T13:49:56.025Z,52.50
2022-08-09T13:52:24.923Z,51.40
2022-08-09T13:55:00.978Z,52.50
2022-08-09T13:57:37.059Z,54.30
2022-08-09T14:00:12.110Z,53.10
2022-08-09T14:02:42.636Z,51.60
2022-08-09T14:05:58.697Z,50.80
2022-08-09T14:08:15.836Z,49.70
2022-08-09T14:10:46.277Z,47.90
2022-08-09T14:13:28.267Z,47.00
2022-08-09T14:16:10.359Z,45.50
2022-08-09T14:18:38.077Z,43.60
2022-08-09T14:21:05.967Z,43.20
2022-08-09T14:23:40.095Z,41.80
2022-08-09T14:26:13.983Z,40.10
2022-08-09T14:28:42.879Z,39.80
2022-08-09T14:31:11.455Z,37.20
2022-08-09T14:33:38.507Z,35.40
2022-08-09T14:36:20.535Z,35.90
2022-08-09T14:38:52.470Z,37.20
2022-08-09T14:41:26.644Z,40.70
2022-08-09T14:44:09.572Z,40.90
2022-08-09T14:46:56.030Z,38.80
2022-08-09T14:49:25.603Z,37.70
2022-08-09T14:51:53.226Z,36.30
2022-08-09T14:54:27.811Z,35.70
2022-08-09T14:56:58.087Z,35.80
2022-08-09T14:59:27.044Z,35.50
2022-08-09T15:01:54.289Z,35.00
2022-08-09T15:04:23.253Z,34.60
2022-08-09T15:06:51.340Z,36.40
2022-08-09T15:10:04.050Z,39.50
2022-08-09T15:12:07.827Z,42.10
2022-08-09T15:14:38.787Z,44.00
2022-08-09T15:17:06.970Z,41.90
2022-08-09T15:21:53.757Z,40.60
2022-08-09T15:22:59.884Z,39.80
2022-08-09T15:25:45.805Z,38.80
2022-08-09T15:28:27.893Z,38.50
2022-08-09T15:31:10.320Z,37.90
2022-08-09T15:34:32.803Z,38.50
2022-08-09T15:36:30.216Z,37.90
2022-08-09T15:38:57.291Z,37.40
2022-08-09T15:41:31.496Z,37.80
2022-08-09T15:43:59.677Z,38.00
2022-08-09T15:46:34.380Z,39.30
2022-08-09T15:49:21.015Z,39.70
2022-08-09T15:52:04.566Z,40.10
2022-08-09T15:54:46.091Z,42.70
2022-08-09T15:57:19.025Z,44.20
2022-08-09T16:00:02.469Z,46.90
2022-08-09T16:02:29.909Z,47.70
2022-08-09T16:04:56.901Z,49.00
2022-08-09T16:07:27.603Z,49.60
2022-08-09T16:10:02.535Z,49.40
2022-08-09T16:12:31.590Z,50.70
2022-08-09T16:14:58.636Z,51.10
2022-08-09T16:17:28.510Z,51.60
2022-08-09T16:20:04.790Z,52.20
2022-08-09T16:22:36.561Z,52.00
2022-08-09T16:25:11.154Z,52.60
2022-08-09T16:27:40.644Z,53.00
2022-08-09T16:30:15.052Z,53.10
2022-08-09T16:33:11.069Z,52.20
2022-08-09T16:35:55.961Z,50.70
2022-08-09T16:38:25.643Z,47.80
2022-08-09T16:40:52.736Z,45.90
2022-08-09T16:43:20.868Z,44.80
2022-08-09T16:45:48.147Z,43.80
2022-08-09T16:48:38.472Z,43.90
2022-08-09T16:51:13.513Z,45.40
2022-08-09T16:54:02.456Z,47.30
2022-08-09T16:56:30.798Z,49.10
2022-08-09T16:58:58.077Z,50.90
2022-08-09T17:01:27.588Z,52.10
2022-08-09T17:03:56.523Z,52.90
2022-08-09T17:06:29.043Z,54.10
2022-08-09T17:09:16.124Z,54.50
2022-08-09T17:11:48.267Z,55.10
2022-08-09T17:14:27.108Z,55.70
2022-08-09T17:16:56.974Z,56.00
2022-08-09T17:19:27.350Z,56.60
2022-08-09T17:22:14.591Z,57.10
2022-08-09T17:24:47.965Z,57.50
2022-08-09T17:27:22.415Z,57.70
2022-08-09T17:29:50.729Z,58.10
2022-08-09T17:32:20.332Z,58.20
2022-08-09T17:35:04.366Z,58.50
2022-08-09T17:38:02.290Z,58.70
2022-08-09T17:40:26.470Z,59.00
2022-08-09T17:42:59.280Z,60.00
2022-08-09T17:45:45.539Z,58.60
2022-08-09T17:48:14.508Z,59.50
2022-08-09T17:50:55.877Z,59.60
2022-08-09T17:53:32.376Z,59.60
2022-08-09T17:56:12.311Z,59.90
2022-08-09T17:58:42.742Z,59.70
2022-08-09T18:01:10.568Z,59.90
2022-08-09T18:03:50.448Z,60.70
2022-08-09T18:06:30.693Z,60.60
2022-08-09T18:09:01.669Z,60.70
2022-08-09T18:12:05.184Z,60.80
2022-08-09T18:14:27.546Z,61.30
2022-08-09T18:16:54.383Z,62.30
2022-08-09T18:20:58.320Z,62.40
2022-08-09T18:22:17.104Z,62.40
2022-08-09T18:24:47.813Z,62.90
2022-08-09T18:27:18.840Z,63.70
2022-08-09T18:30:42.603Z,63.30
2022-08-09T18:32:54.501Z,63.70
2022-08-09T18:36:00.008Z,64.40
2022-08-09T18:38:16.673Z,64.50
2022-08-09T18:40:49.014Z,64.60
2022-08-09T18:43:17.227Z,65.50
2022-08-09T18:46:49.451Z,65.60
2022-08-09T18:48:34.184Z,65.70
2022-08-09T18:51:02.869Z,66.50
2022-08-09T18:53:56.172Z,66.40
2022-08-09T18:56:27.730Z,66.60
2022-08-09T18:59:01.538Z,67.10
2022-08-09T19:01:28.746Z,67.40
2022-08-09T19:04:34.755Z,67.50
2022-08-09T19:07:17.528Z,67.50
2022-08-09T19:10:14.121Z,67.70
2022-08-09T19:12:42.596Z,68.30
2022-08-09T19:15:25.044Z,68.40
2022-08-09T19:18:33.248Z,68.50
2022-08-09T19:21:09.894Z,69.20
2022-08-09T19:24:33.390Z,69.10
2022-08-09T19:30:28.521Z,69.30
2022-08-09T19:33:18.977Z,69.70
2022-08-09T19:35:58.909Z,70.00
2022-08-09T19:38:29.013Z,70.70
2022-08-09T19:41:33.178Z,70.60
2022-08-09T19:44:07.629Z,70.70
2022-08-09T19:46:49.948Z,71.10
2022-08-09T19:50:06.678Z,71.30
2022-08-09T19:52:24.446Z,72.00
2022-08-09T19:54:57.374Z,71.80
2022-08-09T19:57:26.163Z,72.10
2022-08-09T20:00:15.097Z,71.80
2022-08-09T20:04:11.623Z,72.60
2022-08-09T20:05:46.454Z,73.30
2022-08-09T20:08:33.331Z,73.10
2022-08-09T20:11:43.236Z,74.00
2022-08-09T20:14:16.035Z,74.00
2022-08-09T20:16:55.042Z,74.70
2022-08-09T20:19:47.987Z,74.70
2022-08-09T20:22:32.116Z,74.80
2022-08-09T20:25:27.541Z,75.10
2022-08-09T20:27:56.821Z,75.30
2022-08-09T20:30:41.613Z,75.80
2022-08-09T20:33:13.566Z,76.20
2022-08-09T20:36:05.688Z,76.20
2022-08-09T20:41:34.743Z,76.70
2022-08-09T20:44:16.358Z,76.80
2022-08-09T20:47:02.001Z,77.20
2022-08-09T20:49:30.800Z,77.70
2022-08-09T20:52:02.335Z,79.50
2022-08-09T20:54:29.444Z,78.30
2022-08-09T20:56:58.603Z,78.60
2022-08-09T21:00:19.951Z,79.10
2022-08-09T21:02:27.658Z,79.10
2022-08-09T21:05:56.200Z,79.60
2022-08-09T21:07:44.309Z,80.00
2022-08-09T21:10:12.095Z,80.20
2022-08-09T21:12:39.337Z,80.60
2022-08-09T21:15:13.034Z,81.00
2022-08-09T21:18:22.820Z,81.20
2022-08-09T21:20:30.209Z,81.50
2022-08-09T21:23:12.988Z,81.60
2022-08-09T21:25:59.292Z,81.80
2022-08-09T21:28:34.977Z,82.10
2022-08-09T21:31:16.417Z,82.20
2022-08-09T21:33:50.944Z,82.60
2022-08-09T21:36:19.826Z,83.00
2022-08-09T21:38:50.841Z,83.30
2022-08-09T21:42:00.343Z,83.60
2022-08-09T21:44:11.060Z,84.00
2022-08-09T21:46:38.185Z,84.10
2022-08-09T21:49:07.470Z,84.30
2022-08-09T21:51:36.321Z,84.60
2022-08-09T21:54:12.743Z,85.00
2022-08-09T21:56:44.630Z,85.30
2022-08-09T21:59:25.594Z,85.90
2022-08-09T22:02:01.084Z,86.30
2022-08-09T22:04:55.349Z,87.10
2022-08-09T22:07:35.572Z,86.70
2022-08-09T22:10:04.735Z,86.90
2022-08-09T22:12:32.412Z,87.30
2022-08-09T22:14:59.794Z,87.80
2022-08-09T22:17:28.056Z,88.40
2022-08-09T22:20:00.627Z,88.80
2022-08-09T22:22:28.296Z,89.10
2022-08-09T22:26:06.706Z,89.60
2022-08-09T22:27:42.972Z,89.80
2022-08-09T22:30:11.322Z,90.10
2022-08-09T22:32:38.860Z,90.20
2022-08-09T22:36:02.468Z,90.40
2022-08-09T22:38:06.557Z,90.70
2022-08-09T22:40:35.302Z,90.80
2022-08-09T22:43:16.198Z,91.10
2022-08-09T22:48:15.882Z,91.30
2022-08-09T22:48:37.332Z,91.50
2022-08-09T22:51:10.913Z,91.70
2022-08-09T22:54:02.894Z,91.90
2022-08-09T22:56:33.936Z,92.20
2022-08-09T22:59:05.709Z,92.50
2022-08-09T23:01:50.737Z,92.80
2022-08-09T23:04:18.019Z,93.10
2022-08-09T23:07:03.004Z,93.40
2022-08-09T23:09:30.884Z,93.70
2022-08-09T23:12:13.913Z,93.90
2022-08-09T23:14:41.942Z,94.20
2022-08-09T23:17:10.148Z,94.40
2022-08-09T23:20:00.871Z,94.80
2022-08-09T23:22:25.404Z,95.20
2022-08-09T23:24:52.470Z,95.60
2022-08-09T23:27:19.490Z,95.90
2022-08-09T23:29:47.299Z,96.20
2022-08-09T23:32:14.545Z,96.50
2022-08-09T23:34:41.729Z,96.70
2022-08-09T23:37:09.308Z,97.00
2022-08-09T23:39:36.533Z,97.30
2022-08-09T23:42:04.072Z,97.60
2022-08-09T23:44:31.227Z,98.00
2022-08-09T23:46:59.078Z,98.50
2022-08-09T23:49:27.494Z,98.80
2022-08-09T23:51:54.724Z,99.10
2022-08-09T23:54:26.574Z,99.40
2022-08-09T23:57:06.195Z,99.60
